Time;durP1;ratioP1;P1;durP2;ratioP2;P2;SDS_P1;SDS_P2;PMS_P1;PMS_P2;Temp;Humidity;BMP_temperature;BMP_pressure;BME280_temperature;BME280_humidity;BME280_pressure;Samples;Min_cycle;Max_cycle;Signal;HPM_P1;HPM_P2
2022/05/09 00:00:29;;;;;;;2.88;1.95;;;12.10;99.90;;;;;;5117647;28;20185;-63
2022/05/09 00:02:55;;;;;;;2.97;2.10;;;12.10;99.90;;;;;;5117518;28;20530;-63
2022/05/09 00:05:24;;;;;;;1.52;1.33;;;12.00;99.90;;;;;;5117592;28;20189;-63
2022/05/09 00:07:50;;;;;;;2.58;1.58;;;12.10;99.90;;;;;;5117299;28;20180;-62
2022/05/09 00:10:18;;;;;;;2.58;1.80;;;12.10;99.90;;;;;;5117453;28;20173;-63
2022/05/09 00:12:44;;;;;;;2.00;1.80;;;12.10;99.90;;;;;;5117256;28;20197;-63
2022/05/09 00:15:11;;;;;;;3.40;2.08;;;12.00;99.90;;;;;;5117199;27;20244;-63
2022/05/09 00:17:36;;;;;;;2.75;1.90;;;11.90;99.90;;;;;;5117104;28;20207;-63
2022/05/09 00:20:03;;;;;;;2.10;1.90;;;11.80;99.90;;;;;;5117054;28;20173;-62
2022/05/09 00:22:29;;;;;;;2.90;2.10;;;11.80;99.90;;;;;;5117021;28;20180;-63
2022/05/09 00:24:58;;;;;;;1.95;1.73;;;11.80;99.90;;;;;;5115946;28;20173;-62
2022/05/09 00:27:24;;;;;;;2.03;1.80;;;11.70;99.90;;;;;;5117149;28;20173;-63
2022/05/09 00:29:50;;;;;;;2.30;2.10;;;11.60;99.90;;;;;;5117265;28;20184;-62
2022/05/09 00:32:16;;;;;;;3.47;2.05;;;11.50;99.90;;;;;;5116963;28;20211;-62
2022/05/09 00:34:41;;;;;;;1.90;1.67;;;11.60;99.90;;;;;;5116696;28;20179;-62
2022/05/09 00:37:07;;;;;;;1.70;1.55;;;11.60;99.90;;;;;;5115705;28;20681;-62
2022/05/09 00:39:33;;;;;;;3.25;2.10;;;11.70;99.90;;;;;;5115483;28;20173;-63
2022/05/09 00:42:13;;;;;;;2.15;1.83;;;11.60;99.90;;;;;;5116877;28;20183;-62
2022/05/09 00:44:40;;;;;;;2.97;1.90;;;11.60;99.90;;;;;;5115642;28;20173;-62
2022/05/09 00:47:06;;;;;;;2.60;1.58;;;11.60;99.90;;;;;;5116610;28;20260;-62
2022/05/09 00:49:54;;;;;;;2.83;1.85;;;11.50;99.90;;;;;;5116402;28;20204;-62
2022/05/09 00:52:43;;;;;;;2.38;2.13;;;11.50;99.90;;;;;;5116632;28;20256;-64
2022/05/09 00:55:27;;;;;;;2.88;1.98;;;11.50;99.90;;;;;;5116783;28;20165;-63
2022/05/09 00:58:05;;;;;;;2.88;1.90;;;11.60;99.90;;;;;;5116279;28;20640;-62
2022/05/09 01:00:32;;;;;;;2.78;1.92;;;11.60;99.90;;;;;;5116551;28;20165;-62
2022/05/09 01:03:21;;;;;;;3.28;2.30;;;11.60;99.90;;;;;;5116412;28;20176;-63
2022/05/09 01:05:50;;;;;;;2.05;1.90;;;11.70;99.90;;;;;;5098106;28;20575;-63
2022/05/09 01:08:17;;;;;;;3.22;1.88;;;11.60;99.90;;;;;;5116088;28;20181;-62
2022/05/09 01:10:44;;;;;;;2.80;2.17;;;11.60;99.90;;;;;;5115256;27;20193;-62
2022/05/09 01:13:13;;;;;;;3.42;2.20;;;11.60;99.90;;;;;;5114916;28;20235;-62
2022/05/09 01:15:40;;;;;;;3.20;2.15;;;11.50;99.90;;;;;;5116168;28;20219;-62
2022/05/09 01:18:09;;;;;;;2.70;1.92;;;11.50;99.90;;;;;;5115814;28;20687;-62
2022/05/09 01:20:35;;;;;;;3.15;2.30;;;11.50;99.90;;;;;;5115882;28;20240;-62
2022/05/09 01:23:03;;;;;;;2.92;2.17;;;11.50;99.90;;;;;;5115726;28;20201;-62
2022/05/09 01:25:29;;;;;;;4.10;2.15;;;11.40;99.90;;;;;;5116127;28;20165;-62
2022/05/09 01:27:55;;;;;;;2.85;2.50;;;11.40;99.90;;;;;;5115893;28;20170;-63
2022/05/09 01:31:11;;;;;;;2.58;2.17;;;11.30;99.90;;;;;;5115811;28;20544;-62
2022/05/09 01:33:41;;;;;;;2.47;2.20;;;11.20;99.90;;;;;;5013044;28;20177;-61
2022/05/09 01:36:16;;;;;;;2.67;2.13;;;11.20;99.90;;;;;;5096603;28;20181;-62
2022/05/09 01:39:03;;;;;;;2.97;2.13;;;11.20;99.90;;;;;;5115577;28;20207;-62
2022/05/09 01:41:36;;;;;;;3.55;2.00;;;11.20;99.90;;;;;;5115483;28;20180;-62
2022/05/09 01:44:02;;;;;;;2.65;2.35;;;11.20;99.90;;;;;;5115708;28;20170;-62
2022/05/09 01:46:30;;;;;;;2.58;2.10;;;11.20;99.90;;;;;;5114313;28;20226;-62
2022/05/09 01:51:43;;;;;;;2.50;2.30;;;11.20;99.90;;;;;;5115595;28;20238;-62
2022/05/09 01:54:10;;;;;;;3.92;2.63;;;11.10;99.90;;;;;;5115102;28;20195;-62
2022/05/09 01:56:39;;;;;;;3.95;2.83;;;11.10;99.90;;;;;;5115386;28;20180;-63
2022/05/09 01:59:06;;;;;;;3.38;2.03;;;11.10;99.90;;;;;;5115354;28;20259;-62
2022/05/09 02:01:39;;;;;;;3.40;2.13;;;11.00;99.90;;;;;;5115219;28;20173;-62
2022/05/09 02:04:05;;;;;;;3.15;2.17;;;11.00;99.90;;;;;;5115436;28;20189;-62
2022/05/09 02:06:31;;;;;;;2.45;1.95;;;10.90;99.90;;;;;;5114987;28;20178;-62
2022/05/09 02:08:57;;;;;;;2.83;2.25;;;10.80;99.90;;;;;;5115265;28;20197;-63
2022/05/09 02:11:23;;;;;;;3.00;2.10;;;10.70;99.90;;;;;;5115148;28;20208;-62
2022/05/09 02:13:48;;;;;;;2.88;2.38;;;10.70;99.90;;;;;;5115326;28;20302;-62
2022/05/09 02:16:14;;;;;;;2.90;2.35;;;10.70;99.90;;;;;;5114949;28;20177;-62
2022/05/09 02:18:40;;;;;;;2.83;2.50;;;10.80;99.90;;;;;;5113530;28;20566;-62
2022/05/09 02:21:06;;;;;;;2.60;2.20;;;10.70;99.90;;;;;;5114529;28;20618;-62
2022/05/09 02:23:33;;;;;;;3.65;2.40;;;10.70;99.90;;;;;;5114950;28;20176;-62
2022/05/09 02:25:59;;;;;;;5.22;2.63;;;10.70;99.90;;;;;;5114819;28;20189;-62
2022/05/09 02:28:25;;;;;;;2.42;2.13;;;10.60;99.90;;;;;;5113755;28;20185;-64
2022/05/09 02:30:51;;;;;;;3.47;2.35;;;10.60;99.90;;;;;;5114768;28;20173;-62
2022/05/09 02:33:17;;;;;;;2.72;2.40;;;10.60;99.90;;;;;;5114634;28;20173;-62
2022/05/09 02:35:43;;;;;;;4.68;2.55;;;10.60;99.90;;;;;;5114356;28;20177;-62
2022/05/09 02:38:09;;;;;;;4.15;2.83;;;10.60;99.90;;;;;;5113314;28;20257;-62
2022/05/09 02:40:36;;;;;;;3.00;2.30;;;10.60;99.90;;;;;;5114379;28;20222;-62
2022/05/09 02:43:02;;;;;;;4.22;2.55;;;10.60;99.90;;;;;;5113284;28;20572;-62
2022/05/09 02:45:28;;;;;;;3.38;2.38;;;10.60;99.90;;;;;;5114352;28;20185;-62
2022/05/09 02:47:55;;;;;;;2.70;2.15;;;10.50;99.90;;;;;;5114296;28;20260;-62
2022/05/09 02:50:22;;;;;;;2.60;2.38;;;10.50;99.90;;;;;;5114167;28;20165;-62
2022/05/09 02:52:51;;;;;;;2.78;2.20;;;10.50;99.90;;;;;;5114395;28;20170;-62
2022/05/09 02:55:18;;;;;;;2.58;2.28;;;10.50;99.90;;;;;;5114226;28;20188;-62
2022/05/09 02:57:44;;;;;;;2.75;2.42;;;10.50;99.90;;;;;;5114073;28;20209;-62
2022/05/09 03:00:15;;;;;;;3.20;2.33;;;10.40;99.90;;;;;;5114100;28;20173;-62
2022/05/09 03:02:41;;;;;;;3.38;2.20;;;10.40;99.90;;;;;;5114069;28;20165;-62
2022/05/09 03:05:07;;;;;;;2.97;2.35;;;10.40;99.90;;;;;;5114007;28;20330;-62
2022/05/09 03:07:33;;;;;;;4.13;2.30;;;10.40;99.90;;;;;;5112733;28;20209;-62
2022/05/09 03:10:00;;;;;;;3.47;2.70;;;10.40;99.90;;;;;;5114015;28;20217;-62
2022/05/09 03:12:26;;;;;;;2.33;2.05;;;10.40;99.90;;;;;;5113965;28;20217;-62
2022/05/09 03:14:52;;;;;;;2.45;2.03;;;10.30;99.90;;;;;;5113921;28;20579;-62
2022/05/09 03:17:18;;;;;;;3.42;2.50;;;10.30;99.90;;;;;;5113719;28;20201;-62
2022/05/09 03:19:44;;;;;;;3.20;2.33;;;10.30;99.90;;;;;;5113759;28;20501;-62
2022/05/09 03:22:10;;;;;;;3.45;2.60;;;10.20;99.90;;;;;;5113722;28;20173;-62
2022/05/09 03:24:36;;;;;;;3.55;2.53;;;10.20;99.90;;;;;;5113872;28;20169;-62
2022/05/09 03:27:03;;;;;;;3.28;2.35;;;10.20;99.90;;;;;;5113755;28;20222;-62
2022/05/09 03:29:30;;;;;;;2.60;2.38;;;10.20;99.90;;;;;;5112559;28;20166;-62
2022/05/09 03:31:56;;;;;;;3.45;2.50;;;10.20;99.90;;;;;;5113573;28;20693;-62
2022/05/09 03:34:22;;;;;;;2.75;2.42;;;10.20;99.90;;;;;;5113321;28;20181;-62
2022/05/09 03:36:50;;;;;;;2.45;2.25;;;10.20;99.90;;;;;;5113728;28;20208;-62
2022/05/09 03:39:16;;;;;;;3.63;2.55;;;10.10;99.90;;;;;;5113722;28;20177;-62
2022/05/09 03:41:41;;;;;;;4.25;2.30;;;10.20;99.90;;;;;;5113592;28;20188;-62
2022/05/09 03:44:07;;;;;;;3.55;2.55;;;10.20;99.90;;;;;;5113625;28;20653;-62
2022/05/09 03:46:33;;;;;;;3.83;2.85;;;10.20;99.90;;;;;;5113486;28;20256;-62
2022/05/09 03:49:01;;;;;;;2.92;2.40;;;10.20;99.90;;;;;;5113472;28;20184;-62
2022/05/09 03:51:27;;;;;;;4.22;2.80;;;10.30;99.90;;;;;;5113660;28;20256;-61
2022/05/09 03:53:53;;;;;;;3.38;2.10;;;10.20;99.90;;;;;;5113596;28;20329;-62
2022/05/09 03:56:18;;;;;;;3.83;2.63;;;10.20;99.90;;;;;;5113754;28;20306;-62
2022/05/09 03:58:44;;;;;;;5.38;3.08;;;10.20;99.90;;;;;;5112096;28;20534;-62
2022/05/09 04:01:11;;;;;;;2.80;2.50;;;10.30;99.90;;;;;;5113272;28;20534;-62
2022/05/09 04:03:38;;;;;;;3.20;2.63;;;10.30;99.90;;;;;;5112211;28;20264;-61
2022/05/09 04:06:04;;;;;;;5.35;2.58;;;10.30;99.90;;;;;;5113622;28;20550;-62
2022/05/09 04:08:30;;;;;;;3.50;2.70;;;10.30;99.90;;;;;;5113461;28;20326;-62
2022/05/09 04:10:55;;;;;;;4.30;2.80;;;10.30;99.90;;;;;;5113336;28;20305;-62
2022/05/09 04:13:22;;;;;;;2.85;2.22;;;10.30;99.90;;;;;;5113347;28;20169;-62
2022/05/09 04:18:40;;;;;;;2.55;2.35;;;10.30;99.90;;;;;;5113233;28;20699;-62
2022/05/09 04:21:07;;;;;;;4.63;2.70;;;10.30;99.90;;;;;;5113424;28;20252;-62
2022/05/09 04:23:33;;;;;;;3.65;2.47;;;10.40;99.90;;;;;;5113375;28;20638;-62
2022/05/09 04:26:00;;;;;;;4.45;2.85;;;10.40;99.90;;;;;;5113183;28;20268;-62
2022/05/09 04:28:26;;;;;;;2.70;2.50;;;10.40;99.90;;;;;;5113094;28;20256;-64
2022/05/09 04:30:52;;;;;;;3.67;2.22;;;10.40;99.90;;;;;;5113626;28;20280;-62
2022/05/09 04:33:18;;;;;;;3.03;2.22;;;10.40;99.90;;;;;;5113213;28;20173;-62
2022/05/09 04:35:44;;;;;;;3.25;2.33;;;10.50;99.90;;;;;;5113499;28;20185;-62
2022/05/09 04:38:16;;;;;;;3.63;2.55;;;10.50;99.90;;;;;;5113048;28;20307;-62
2022/05/09 04:40:42;;;;;;;2.47;2.10;;;10.60;99.90;;;;;;5113060;28;20177;-61
2022/05/09 04:43:08;;;;;;;3.92;2.42;;;10.70;99.90;;;;;;5113234;28;20507;-62
2022/05/09 04:45:34;;;;;;;2.33;2.10;;;10.70;99.90;;;;;;5114878;28;20175;-62
2022/05/09 04:48:00;;;;;;;3.92;2.33;;;10.70;99.90;;;;;;5116739;28;20298;-62
2022/05/09 04:50:27;;;;;;;5.25;2.50;;;10.70;99.90;;;;;;5115407;28;20530;-62
2022/05/09 04:52:53;;;;;;;4.13;2.50;;;10.70;99.90;;;;;;5116565;28;20169;-62
2022/05/09 04:55:20;;;;;;;4.72;2.63;;;10.70;99.90;;;;;;5116363;27;20165;-62
2022/05/09 04:57:49;;;;;;;3.22;2.50;;;10.70;99.90;;;;;;5115898;28;20231;-62
2022/05/09 05:00:21;;;;;;;2.58;2.38;;;10.80;99.90;;;;;;5116784;28;20579;-59
2022/05/09 05:02:47;;;;;;;3.47;2.60;;;10.90;99.90;;;;;;5116153;28;20286;-61
2022/05/09 05:05:13;;;;;;;4.53;2.65;;;10.90;99.90;;;;;;5115194;28;20194;-61
2022/05/09 05:07:38;;;;;;;2.40;2.15;;;10.90;99.90;;;;;;5115561;28;20563;-61
2022/05/09 05:10:05;;;;;;;2.90;2.25;;;11.00;99.90;;;;;;5116117;28;20646;-60
2022/05/09 05:12:31;;;;;;;5.25;2.80;;;11.00;99.90;;;;;;5116338;28;20170;-61
2022/05/09 05:14:57;;;;;;;3.22;2.13;;;11.10;99.90;;;;;;5116218;28;20226;-61
2022/05/09 05:17:23;;;;;;;3.58;2.53;;;11.10;99.90;;;;;;5116086;28;20201;-61
2022/05/09 05:19:49;;;;;;;3.58;2.55;;;11.30;99.90;;;;;;5115968;28;20184;-61
2022/05/09 05:22:15;;;;;;;3.72;2.50;;;11.40;99.90;;;;;;5115884;28;20181;-61
2022/05/09 05:24:47;;;;;;;3.08;2.55;;;11.50;99.90;;;;;;5115910;28;20214;-61
2022/05/09 05:27:13;;;;;;;3.67;2.47;;;11.60;99.90;;;;;;5116064;28;20634;-61
2022/05/09 05:29:41;;;;;;;4.50;3.10;;;11.70;99.90;;;;;;5115857;28;20165;-61
2022/05/09 05:32:14;;;;;;;2.58;2.38;;;11.70;99.90;;;;;;5115748;28;20169;-61
2022/05/09 05:34:40;;;;;;;3.13;2.53;;;11.80;99.90;;;;;;5115895;28;20182;-61
2022/05/09 05:37:06;;;;;;;3.17;2.50;;;11.90;99.90;;;;;;5115469;28;20204;-61
2022/05/09 05:39:34;;;;;;;3.50;2.55;;;12.00;99.90;;;;;;5115732;28;20669;-61
2022/05/09 05:41:59;;;;;;;4.60;2.83;;;12.10;99.90;;;;;;5114548;28;20188;-61
2022/05/09 05:44:25;;;;;;;6.88;2.53;;;12.30;99.90;;;;;;5115547;28;20169;-60
2022/05/09 05:46:51;;;;;;;3.55;2.55;;;12.40;99.90;;;;;;5115410;28;20173;-61
2022/05/09 05:49:16;;;;;;;4.75;2.95;;;12.50;99.90;;;;;;5115511;28;20219;-61
2022/05/09 05:51:42;;;;;;;3.55;2.53;;;12.70;99.90;;;;;;5115269;28;20169;-61
2022/05/09 05:54:08;;;;;;;3.42;2.58;;;12.70;99.90;;;;;;5115761;28;20252;-61
2022/05/09 05:56:37;;;;;;;3.10;2.80;;;12.80;99.90;;;;;;5114906;28;20176;-61
2022/05/09 05:59:04;;;;;;;3.97;2.78;;;13.00;99.90;;;;;;5115347;27;20195;-61
2022/05/09 06:01:30;;;;;;;3.40;2.40;;;13.20;99.90;;;;;;5115240;27;20499;-61
2022/05/09 06:03:55;;;;;;;4.03;3.20;;;13.30;99.90;;;;;;5114883;28;20182;-61
2022/05/09 06:06:21;;;;;;;4.35;3.25;;;13.40;99.90;;;;;;5115272;28;20180;-61
2022/05/09 06:08:48;;;;;;;5.25;3.47;;;13.80;99.90;;;;;;5115199;28;20178;-61
2022/05/09 06:11:14;;;;;;;7.05;3.30;;;13.80;99.90;;;;;;5115001;28;20310;-61
2022/05/09 06:13:40;;;;;;;5.70;3.33;;;13.80;99.90;;;;;;5115047;28;20654;-61
2022/05/09 06:16:06;;;;;;;5.40;3.17;;;13.90;99.90;;;;;;5114946;28;20173;-61
2022/05/09 06:18:32;;;;;;;7.20;3.88;;;14.00;99.90;;;;;;5114716;28;20208;-61
2022/05/09 06:20:57;;;;;;;6.88;4.15;;;14.10;99.90;;;;;;5114815;28;20564;-61
2022/05/09 06:23:25;;;;;;;5.38;3.60;;;14.10;99.90;;;;;;5114708;28;20512;-61
2022/05/09 06:25:51;;;;;;;6.13;3.92;;;14.30;99.90;;;;;;5113602;28;20636;-61
2022/05/09 06:28:22;;;;;;;5.60;3.80;;;14.40;99.90;;;;;;5114758;28;20256;-61
2022/05/09 06:30:47;;;;;;;6.90;4.07;;;14.60;99.90;;;;;;5114743;28;20532;-61
2022/05/09 06:33:23;;;;;;;7.50;4.53;;;14.70;99.90;;;;;;5114416;28;20177;-60
2022/05/09 06:35:51;;;;;;;8.38;4.20;;;14.90;99.90;;;;;;5114515;28;20173;-61
2022/05/09 06:38:18;;;;;;;7.80;4.75;;;14.90;99.90;;;;;;5114453;28;20240;-61
2022/05/09 06:40:44;;;;;;;7.50;4.40;;;15.00;99.90;;;;;;5114483;28;20169;-61
2022/05/09 06:43:10;;;;;;;7.47;4.32;;;15.10;99.90;;;;;;5114321;28;20223;-61
2022/05/09 06:45:36;;;;;;;8.50;4.70;;;15.20;99.90;;;;;;5114104;28;20268;-61
2022/05/09 06:48:02;;;;;;;9.07;4.68;;;15.40;99.90;;;;;;5114248;28;20256;-61
2022/05/09 06:50:30;;;;;;;8.52;4.47;;;15.50;99.90;;;;;;5114351;28;20222;-61
2022/05/09 06:52:57;;;;;;;5.70;3.88;;;15.70;99.90;;;;;;5114338;28;20177;-61
2022/05/09 06:55:23;;;;;;;6.65;4.53;;;15.90;99.90;;;;;;5114146;28;20741;-61
2022/05/09 06:57:49;;;;;;;7.82;4.63;;;15.80;99.90;;;;;;5114011;28;20283;-62
2022/05/09 07:00:18;;;;;;;7.80;4.47;;;16.00;99.90;;;;;;5113967;28;20699;-61
2022/05/09 07:02:45;;;;;;;8.32;4.65;;;16.10;99.90;;;;;;5114226;28;20169;-61
2022/05/09 07:05:12;;;;;;;6.07;4.45;;;16.20;99.90;;;;;;5113788;28;20185;-62
2022/05/09 07:07:38;;;;;;;5.78;4.28;;;16.30;99.90;;;;;;5113197;28;20188;-62
2022/05/09 07:10:05;;;;;;;9.70;4.68;;;16.20;99.90;;;;;;5113927;28;20180;-61
2022/05/09 07:12:31;;;;;;;6.05;4.10;;;16.30;99.90;;;;;;5113875;27;20177;-61
2022/05/09 07:14:57;;;;;;;7.78;4.72;;;16.20;99.90;;;;;;5113727;28;20264;-61
2022/05/09 07:17:22;;;;;;;9.40;4.13;;;16.20;99.90;;;;;;5114125;28;20283;-61
2022/05/09 07:19:48;;;;;;;8.93;4.63;;;16.30;99.90;;;;;;5113916;28;20623;-62
2022/05/09 07:22:14;;;;;;;10.18;4.63;;;16.30;99.90;;;;;;5113805;28;20526;-61
2022/05/09 07:24:40;;;;;;;7.45;4.32;;;16.40;99.90;;;;;;5113753;28;20166;-62
2022/05/09 07:27:07;;;;;;;9.07;4.00;;;16.80;99.90;;;;;;5113736;28;20268;-61
2022/05/09 07:29:33;;;;;;;9.90;5.03;;;16.90;99.90;;;;;;5112416;28;20192;-62
2022/05/09 07:31:59;;;;;;;7.65;4.20;;;17.10;99.90;;;;;;5113805;28;20226;-62
2022/05/09 07:34:25;;;;;;;8.57;4.43;;;17.40;99.90;;;;;;5113738;28;20181;-62
2022/05/09 07:36:50;;;;;;;7.60;4.70;;;17.40;99.90;;;;;;5113716;28;20194;-62
2022/05/09 07:39:16;;;;;;;7.72;4.28;;;17.60;99.90;;;;;;5113622;28;20212;-62
2022/05/09 07:41:42;;;;;;;7.82;4.38;;;17.60;99.90;;;;;;5113621;28;20208;-62
2022/05/09 07:44:08;;;;;;;7.88;4.63;;;17.70;99.90;;;;;;5113427;28;20177;-62
2022/05/09 07:46:34;;;;;;;9.73;4.85;;;17.60;99.90;;;;;;5113635;28;20296;-62
2022/05/09 07:49:00;;;;;;;9.55;4.60;;;17.70;99.90;;;;;;5113979;28;20182;-62
2022/05/09 07:51:25;;;;;;;10.05;4.63;;;18.10;99.90;;;;;;5113819;28;20207;-62
2022/05/09 07:53:51;;;;;;;6.10;4.05;;;17.90;99.90;;;;;;5113534;28;20301;-62
2022/05/09 07:56:17;;;;;;;9.07;3.85;;;18.30;99.90;;;;;;5113427;28;20531;-62
2022/05/09 07:58:43;;;;;;;8.32;4.57;;;18.40;99.90;;;;;;5113312;28;20201;-62
2022/05/09 08:01:08;;;;;;;7.68;4.03;;;18.40;99.90;;;;;;5113696;28;20173;-62
2022/05/09 08:03:37;;;;;;;6.50;4.15;;;18.70;99.90;;;;;;5113782;28;20173;-62
2022/05/09 08:06:04;;;;;;;8.05;4.60;;;18.60;99.90;;;;;;5113530;28;20193;-62
2022/05/09 08:08:32;;;;;;;7.25;4.00;;;18.60;99.90;;;;;;5113343;28;20178;-62
2022/05/09 08:10:59;;;;;;;7.13;4.38;;;18.70;99.90;;;;;;5113315;28;20177;-62
2022/05/09 08:13:28;;;;;;;6.88;3.88;;;18.80;99.90;;;;;;5113214;28;20272;-61
2022/05/09 08:15:53;;;;;;;6.30;3.55;;;18.90;99.90;;;;;;5113406;28;20165;-62
2022/05/09 08:18:21;;;;;;;5.70;3.72;;;19.10;99.50;;;;;;5112085;28;20531;-62
2022/05/09 08:20:48;;;;;;;6.07;3.65;;;19.10;99.70;;;;;;5117096;28;20177;-62
2022/05/09 08:23:19;;;;;;;7.05;3.33;;;19.00;99.10;;;;;;5117165;28;20530;-62
2022/05/09 08:25:47;;;;;;;9.07;3.72;;;19.30;99.40;;;;;;5117000;28;20170;-63
2022/05/09 08:28:14;;;;;;;7.25;3.58;;;19.00;99.00;;;;;;5117220;27;20238;-63
2022/05/09 08:30:41;;;;;;;8.38;3.85;;;18.90;99.90;;;;;;5115896;28;20199;-62
2022/05/09 08:33:14;;;;;;;5.88;2.83;;;18.90;99.80;;;;;;5116947;28;20649;-62
2022/05/09 08:35:41;;;;;;;4.97;3.03;;;19.20;99.90;;;;;;5116948;28;20639;-62
2022/05/09 08:38:07;;;;;;;6.05;3.13;;;19.60;99.90;;;;;;5116787;28;20209;-62
2022/05/09 08:40:36;;;;;;;4.50;2.50;;;19.80;98.90;;;;;;5116635;27;20181;-63
2022/05/09 08:43:37;;;;;;;5.00;2.60;;;19.90;98.50;;;;;;5116902;28;20169;-62
2022/05/09 08:46:13;;;;;;;4.55;2.30;;;20.10;96.00;;;;;;5116658;28;20208;-63
2022/05/09 08:49:02;;;;;;;7.65;2.70;;;20.00;97.10;;;;;;5116510;28;20645;-62
2022/05/09 08:51:27;;;;;;;5.22;1.90;;;20.40;97.40;;;;;;5116731;28;20166;-62
2022/05/09 08:54:00;;;;;;;5.45;2.10;;;20.40;93.50;;;;;;5116730;28;20504;-63
2022/05/09 08:56:26;;;;;;;4.45;1.70;;;20.60;95.10;;;;;;5116498;28;20178;-62
2022/05/09 08:58:57;;;;;;;1.98;1.38;;;20.50;93.30;;;;;;5116407;28;20224;-62
2022/05/09 09:01:49;;;;;;;2.13;1.20;;;20.30;91.10;;;;;;5116421;27;20169;-63
2022/05/09 09:04:30;;;;;;;2.70;1.73;;;20.70;93.10;;;;;;5116402;28;20189;-62
2022/05/09 09:07:36;;;;;;;2.60;1.45;;;20.80;91.00;;;;;;5116357;28;20161;-63
2022/05/09 09:10:40;;;;;;;4.03;1.58;;;21.00;90.60;;;;;;5116349;28;20177;-63
2022/05/09 09:13:06;;;;;;;2.08;1.33;;;21.00;90.90;;;;;;5076926;28;20238;-63
2022/05/09 09:16:12;;;;;;;2.33;1.55;;;21.20;90.10;;;;;;5116065;28;20627;-63
2022/05/09 09:19:04;;;;;;;2.60;1.48;;;21.20;88.30;;;;;;5013477;28;20212;-63
2022/05/09 09:21:30;;;;;;;2.65;1.33;;;21.60;90.90;;;;;;5116071;28;20197;-63
2022/05/09 09:24:27;;;;;;;1.10;1.00;;;21.30;84.50;;;;;;5115878;28;20222;-63
2022/05/09 09:27:14;;;;;;;1.50;1.20;;;21.50;89.80;;;;;;5088736;28;20201;-63
2022/05/09 09:29:47;;;;;;;1.98;1.13;;;21.70;86.20;;;;;;5116008;28;20181;-63
2022/05/09 09:32:18;;;;;;;1.45;1.27;;;21.60;85.00;;;;;;5114978;28;20184;-62
2022/05/09 09:35:06;;;;;;;1.30;1.20;;;21.70;82.20;;;;;;5115912;28;20177;-63
2022/05/09 09:37:35;;;;;;;1.45;1.35;;;21.60;82.20;;;;;;5115811;28;20221;-63
2022/05/09 09:40:03;;;;;;;3.72;1.10;;;21.80;83.10;;;;;;5115652;28;20182;-63
2022/05/09 09:42:29;;;;;;;2.33;1.10;;;21.60;80.80;;;;;;5115532;28;20180;-63
2022/05/09 09:44:58;;;;;;;3.67;1.15;;;21.80;84.70;;;;;;5115337;28;20185;-63
2022/05/09 09:47:26;;;;;;;2.72;1.00;;;21.80;81.40;;;;;;5115679;28;20201;-63
2022/05/09 09:50:21;;;;;;;1.75;1.10;;;22.00;80.00;;;;;;5115708;28;20169;-63
2022/05/09 09:52:52;;;;;;;1.52;1.10;;;21.70;77.30;;;;;;5115384;28;20165;-63
2022/05/09 09:55:33;;;;;;;1.67;1.30;;;21.90;79.10;;;;;;5115230;28;20173;-63
2022/05/09 09:58:25;;;;;;;1.05;0.90;;;22.10;81.30;;;;;;5115355;28;20199;-64
2022/05/09 10:01:20;;;;;;;1.58;1.13;;;22.40;76.20;;;;;;5115236;28;20262;-63
2022/05/09 10:03:48;;;;;;;1.10;1.00;;;22.50;76.80;;;;;;5114815;28;20188;-63
2022/05/09 10:06:21;;;;;;;3.38;1.10;;;22.30;72.60;;;;;;5115365;28;20169;-63
2022/05/09 10:09:00;;;;;;;3.90;1.73;;;22.40;74.20;;;;;;5115108;28;20260;-63
2022/05/09 10:11:29;;;;;;;1.90;0.88;;;22.60;72.00;;;;;;5115186;28;20180;-63
2022/05/09 10:14:01;;;;;;;1.27;1.00;;;22.70;74.50;;;;;;5114870;28;20653;-63
2022/05/09 10:16:30;;;;;;;2.80;0.95;;;22.80;71.70;;;;;;5113907;28;20173;-63
2022/05/09 10:19:01;;;;;;;1.15;1.00;;;22.80;72.00;;;;;;5114680;28;20742;-63
2022/05/09 10:24:47;;;;;;;2.25;1.00;;;22.80;71.90;;;;;;5114955;28;20204;-63
2022/05/09 10:27:34;;;;;;;0.82;0.80;;;22.50;69.30;;;;;;5113713;28;20200;-63
2022/05/09 10:30:15;;;;;;;1.00;0.90;;;22.70;72.70;;;;;;5114795;28;20161;-64
2022/05/09 10:32:57;;;;;;;1.30;1.13;;;23.00;74.10;;;;;;5114560;28;20176;-64
2022/05/09 10:35:43;;;;;;;2.00;1.02;;;23.10;69.80;;;;;;5114781;27;20170;-63
2022/05/09 10:38:21;;;;;;;1.70;1.08;;;22.80;69.80;;;;;;5114650;28;20197;-63
2022/05/09 10:40:55;;;;;;;1.98;1.10;;;22.90;70.30;;;;;;5114481;28;20230;-63
2022/05/09 10:43:41;;;;;;;1.95;1.08;;;22.90;66.70;;;;;;5114274;28;20181;-64
2022/05/09 10:46:12;;;;;;;1.92;0.77;;;23.00;70.30;;;;;;5114460;28;20180;-64
2022/05/09 10:48:59;;;;;;;1.90;0.90;;;23.00;69.40;;;;;;5114314;28;20524;-63
2022/05/09 10:51:41;;;;;;;0.80;0.80;;;23.00;70.10;;;;;;5114316;28;20165;-63
2022/05/09 10:54:12;;;;;;;2.53;1.00;;;22.80;66.00;;;;;;5114410;28;20173;-63
2022/05/09 10:56:58;;;;;;;3.75;1.00;;;23.00;69.80;;;;;;5114324;28;20166;-63
2022/05/09 10:59:29;;;;;;;1.55;0.90;;;23.20;67.20;;;;;;5114153;28;20185;-64
2022/05/09 11:02:24;;;;;;;1.20;0.95;;;23.30;65.60;;;;;;5113942;28;20173;-64
2022/05/09 11:04:50;;;;;;;1.65;0.98;;;23.40;67.00;;;;;;5108250;28;20205;-63
2022/05/09 11:07:31;;;;;;;1.58;0.95;;;23.70;70.00;;;;;;5114133;28;20264;-64
2022/05/09 11:10:37;;;;;;;1.83;1.10;;;23.80;71.70;;;;;;5113980;28;20165;-64
2022/05/09 11:13:16;;;;;;;2.47;1.52;;;24.40;70.40;;;;;;5114022;28;20542;-64
2022/05/09 11:15:50;;;;;;;1.48;1.20;;;24.30;67.00;;;;;;5114070;28;20165;-64
2022/05/09 11:18:29;;;;;;;2.08;1.08;;;24.00;68.00;;;;;;5113830;28;20196;-64
2022/05/09 11:21:03;;;;;;;1.10;1.00;;;24.10;65.00;;;;;;5113679;28;20173;-64
2022/05/09 11:23:48;;;;;;;2.95;1.20;;;23.90;67.30;;;;;;5113899;28;20168;-61
2022/05/09 11:26:35;;;;;;;1.77;1.20;;;23.70;64.20;;;;;;5113907;28;20510;-61
2022/05/09 11:29:19;;;;;;;1.98;1.20;;;23.80;66.10;;;;;;5112383;28;20188;-63
2022/05/09 11:32:10;;;;;;;3.78;1.13;;;23.70;65.50;;;;;;5113888;28;20221;-64
2022/05/09 11:34:54;;;;;;;2.45;1.38;;;23.90;65.40;;;;;;5113912;28;20170;-64
2022/05/09 11:37:41;;;;;;;1.40;1.08;;;24.00;66.00;;;;;;5113395;28;20562;-64
2022/05/09 11:40:12;;;;;;;2.58;1.38;;;24.10;67.20;;;;;;5113876;28;20201;-64
2022/05/09 11:45:58;;;;;;;1.40;1.02;;;24.30;66.60;;;;;;5113555;28;20245;-63
2022/05/09 11:48:36;;;;;;;1.48;1.00;;;24.20;66.70;;;;;;5113691;28;20216;-64
2022/05/09 11:51:43;;;;;;;1.35;1.13;;;24.20;65.00;;;;;;5113645;28;20518;-63
2022/05/09 11:54:23;;;;;;;1.52;1.10;;;23.50;64.30;;;;;;5114745;28;20179;-64
2022/05/09 11:56:59;;;;;;;1.65;1.33;;;23.40;66.40;;;;;;5117642;28;20176;-63
2022/05/09 11:59:29;;;;;;;1.70;1.35;;;23.70;66.40;;;;;;5117760;28;20246;-63
2022/05/09 12:01:59;;;;;;;2.30;1.70;;;23.30;64.60;;;;;;5117623;28;20181;-63
2022/05/09 12:04:40;;;;;;;2.03;1.23;;;23.50;73.10;;;;;;5117152;28;20287;-63
2022/05/09 12:07:35;;;;;;;1.10;1.00;;;23.90;70.50;;;;;;5117698;28;20645;-64
2022/05/09 12:10:12;;;;;;;1.65;1.35;;;24.20;70.10;;;;;;5027276;28;20192;-63
2022/05/09 12:12:37;;;;;;;2.15;1.20;;;24.20;67.30;;;;;;5117443;28;20192;-63
2022/05/09 12:15:08;;;;;;;1.50;1.15;;;24.40;68.40;;;;;;5117157;28;20614;-64
2022/05/09 12:17:50;;;;;;;2.25;1.20;;;24.40;67.00;;;;;;5117378;28;20243;-64
2022/05/09 12:20:28;;;;;;;1.23;1.13;;;24.10;65.70;;;;;;5117507;28;20217;-64
2022/05/09 12:22:59;;;;;;;2.55;1.20;;;24.20;69.10;;;;;;5117147;28;20180;-64
2022/05/09 12:25:38;;;;;;;1.25;0.93;;;24.20;66.50;;;;;;5117012;28;20650;-64
2022/05/09 12:28:16;;;;;;;1.25;0.95;;;24.10;68.90;;;;;;5117245;28;20181;-64
2022/05/09 12:30:51;;;;;;;1.30;1.17;;;24.30;68.60;;;;;;5117081;28;20169;-64
2022/05/09 12:33:36;;;;;;;2.30;1.58;;;24.40;69.60;;;;;;5117138;28;20657;-64
2022/05/09 12:36:15;;;;;;;2.50;1.58;;;24.10;67.70;;;;;;5117032;28;20614;-63
2022/05/09 12:38:44;;;;;;;5.18;2.30;;;24.40;69.00;;;;;;5116919;28;20201;-64
2022/05/09 12:41:10;;;;;;;2.35;1.70;;;24.20;66.00;;;;;;5116895;28;20169;-63
2022/05/09 12:43:38;;;;;;;2.75;1.95;;;24.50;68.60;;;;;;5116715;28;20180;-64
2022/05/09 12:46:07;;;;;;;3.45;1.80;;;24.50;69.60;;;;;;5115550;28;20169;-64
2022/05/09 12:48:38;;;;;;;1.90;1.70;;;24.70;71.70;;;;;;5116615;27;20178;-64
2022/05/09 12:51:07;;;;;;;2.42;1.80;;;24.50;70.70;;;;;;5116782;28;20260;-63
2022/05/09 12:53:35;;;;;;;2.55;1.52;;;24.40;67.50;;;;;;5116699;28;20169;-63
2022/05/09 12:56:28;;;;;;;2.22;1.90;;;24.50;69.60;;;;;;5116575;28;20623;-64
2022/05/09 12:59:11;;;;;;;4.70;2.22;;;24.80;69.00;;;;;;5116436;28;20209;-63
2022/05/09 13:01:42;;;;;;;3.22;2.33;;;24.80;70.40;;;;;;5116556;28;20178;-62
2022/05/09 13:04:25;;;;;;;2.70;2.17;;;24.80;71.20;;;;;;5116626;28;20189;-64
2022/05/09 13:07:03;;;;;;;3.20;2.30;;;24.70;70.30;;;;;;5115094;28;20168;-64
2022/05/09 13:09:51;;;;;;;3.78;2.20;;;24.70;69.90;;;;;;5116572;28;20173;-64
2022/05/09 13:12:34;;;;;;;3.15;2.45;;;24.40;69.60;;;;;;5116403;28;20350;-63
2022/05/09 13:15:20;;;;;;;2.72;2.40;;;24.60;69.60;;;;;;5116358;28;20200;-64
2022/05/09 13:17:56;;;;;;;2.58;2.30;;;24.70;67.20;;;;;;5116283;28;20213;-64
2022/05/09 13:20:23;;;;;;;2.50;2.15;;;24.70;71.60;;;;;;5116261;28;20196;-64